sensor_id;sensor_type;location;lat;lon;timestamp;P1;durP1;ratioP1;P2;durP2;ratioP2
50367;SDS011;36281;34.132;-118.018;2023-11-19T00:00:54;4.32;;;2.70;;
50367;SDS011;36281;34.132;-118.018;2023-11-19T00:03:24;3.55;;;3.10;;
50367;SDS011;36281;34.132;-118.018;2023-11-19T00:05:53;4.95;;;2.95;;
50367;SDS011;36281;34.132;-118.018;2023-11-19T00:08:22;4.43;;;3.30;;
50367;SDS011;36281;34.132;-118.018;2023-11-19T00:10:52;3.80;;;2.92;;
50367;SDS011;36281;34.132;-118.018;2023-11-19T00:13:21;3.90;;;3.00;;
50367;SDS011;36281;34.132;-118.018;2023-11-19T00:15:52;4.60;;;3.10;;
50367;SDS011;36281;34.132;-118.018;2023-11-19T00:18:21;3.83;;;3.20;;
50367;SDS011;36281;34.132;-118.018;2023-11-19T00:20:50;6.70;;;3.72;;
50367;SDS011;36281;34.132;-118.018;2023-11-19T00:23:19;6.25;;;3.50;;
50367;SDS011;36281;34.132;-118.018;2023-11-19T00:25:49;4.20;;;3.58;;
50367;SDS011;36281;34.132;-118.018;2023-11-19T00:28:18;5.15;;;3.60;;
50367;SDS011;36281;34.132;-118.018;2023-11-19T00:30:47;8.80;;;4.45;;
50367;SDS011;36281;34.132;-118.018;2023-11-19T00:33:21;10.10;;;4.57;;
50367;SDS011;36281;34.132;-118.018;2023-11-19T00:35:51;6.18;;;4.60;;
50367;SDS011;36281;34.132;-118.018;2023-11-19T00:38:23;6.90;;;4.57;;
50367;SDS011;36281;34.132;-118.018;2023-11-19T00:41:00;6.85;;;4.57;;
50367;SDS011;36281;34.132;-118.018;2023-11-19T00:43:32;6.85;;;4.22;;
50367;SDS011;36281;34.132;-118.018;2023-11-19T00:46:07;6.85;;;4.50;;
50367;SDS011;36281;34.132;-118.018;2023-11-19T00:48:44;7.72;;;4.35;;
50367;SDS011;36281;34.132;-118.018;2023-11-19T00:51:16;5.93;;;4.18;;
50367;SDS011;36281;34.132;-118.018;2023-11-19T00:53:50;4.95;;;3.90;;
50367;SDS011;36281;34.132;-118.018;2023-11-19T00:56:24;6.80;;;4.15;;
50367;SDS011;36281;34.132;-118.018;2023-11-19T00:58:57;4.22;;;3.83;;
50367;SDS011;36281;34.132;-118.018;2023-11-19T01:01:29;4.95;;;4.00;;
50367;SDS011;36281;34.132;-118.018;2023-11-19T01:04:02;6.88;;;3.97;;
50367;SDS011;36281;34.132;-118.018;2023-11-19T01:06:36;4.45;;;3.78;;
50367;SDS011;36281;34.132;-118.018;2023-11-19T01:09:15;4.50;;;2.90;;
50367;SDS011;36281;34.132;-118.018;2023-11-19T01:11:46;5.20;;;2.97;;
50367;SDS011;36281;34.132;-118.018;2023-11-19T01:14:19;5.88;;;2.80;;
50367;SDS011;36281;34.132;-118.018;2023-11-19T01:16:49;3.92;;;2.67;;
50367;SDS011;36281;34.132;-118.018;2023-11-19T01:19:21;4.45;;;2.70;;
50367;SDS011;36281;34.132;-118.018;2023-11-19T01:21:53;2.75;;;2.50;;
50367;SDS011;36281;34.132;-118.018;2023-11-19T01:24:31;4.72;;;2.50;;
50367;SDS011;36281;34.132;-118.018;2023-11-19T01:27:04;5.68;;;2.85;;
50367;SDS011;36281;34.132;-118.018;2023-11-19T01:29:41;4.07;;;3.05;;
50367;SDS011;36281;34.132;-118.018;2023-11-19T01:32:13;5.22;;;2.92;;
50367;SDS011;36281;34.132;-118.018;2023-11-19T01:34:51;3.60;;;2.70;;
50367;SDS011;36281;34.132;-118.018;2023-11-19T01:37:24;3.63;;;2.60;;
50367;SDS011;36281;34.132;-118.018;2023-11-19T01:39:57;3.78;;;2.70;;
50367;SDS011;36281;34.132;-118.018;2023-11-19T01:42:39;3.67;;;2.60;;
50367;SDS011;36281;34.132;-118.018;2023-11-19T01:45:17;3.72;;;2.60;;
50367;SDS011;36281;34.132;-118.018;2023-11-19T01:48:00;5.10;;;2.80;;
50367;SDS011;36281;34.132;-118.018;2023-11-19T01:50:56;4.32;;;2.40;;
50367;SDS011;36281;34.132;-118.018;2023-11-19T01:53:29;6.07;;;2.63;;
50367;SDS011;36281;34.132;-118.018;2023-11-19T01:56:01;4.68;;;2.50;;
50367;SDS011;36281;34.132;-118.018;2023-11-19T01:58:37;3.60;;;2.70;;
50367;SDS011;36281;34.132;-118.018;2023-11-19T02:01:11;4.57;;;2.50;;
50367;SDS011;36281;34.132;-118.018;2023-11-19T02:03:42;4.05;;;2.60;;
50367;SDS011;36281;34.132;-118.018;2023-11-19T02:06:19;3.15;;;2.53;;
50367;SDS011;36281;34.132;-118.018;2023-11-19T02:08:49;3.70;;;2.70;;
50367;SDS011;36281;34.132;-118.018;2023-11-19T02:11:21;3.92;;;2.80;;
50367;SDS011;36281;34.132;-118.018;2023-11-19T02:13:52;3.08;;;2.65;;
50367;SDS011;36281;34.132;-118.018;2023-11-19T02:16:23;7.32;;;3.05;;
50367;SDS011;36281;34.132;-118.018;2023-11-19T02:18:58;3.50;;;2.55;;
50367;SDS011;36281;34.132;-118.018;2023-11-19T02:21:37;5.35;;;3.22;;
50367;SDS011;36281;34.132;-118.018;2023-11-19T02:24:14;4.82;;;2.67;;
50367;SDS011;36281;34.132;-118.018;2023-11-19T02:29:28;5.07;;;2.63;;
50367;SDS011;36281;34.132;-118.018;2023-11-19T02:32:00;3.65;;;2.60;;
50367;SDS011;36281;34.132;-118.018;2023-11-19T02:34:34;4.10;;;2.60;;
50367;SDS011;36281;34.132;-118.018;2023-11-19T02:37:05;3.17;;;2.35;;
50367;SDS011;36281;34.132;-118.018;2023-11-19T02:39:37;3.97;;;2.70;;
50367;SDS011;36281;34.132;-118.018;2023-11-19T02:42:09;4.22;;;2.72;;
50367;SDS011;36281;34.132;-118.018;2023-11-19T02:44:42;5.45;;;2.78;;
50367;SDS011;36281;34.132;-118.018;2023-11-19T02:47:38;4.07;;;2.63;;
50367;SDS011;36281;34.132;-118.018;2023-11-19T02:50:11;4.88;;;3.00;;
50367;SDS011;36281;34.132;-118.018;2023-11-19T02:52:44;4.00;;;2.80;;
50367;SDS011;36281;34.132;-118.018;2023-11-19T02:55:14;4.20;;;2.70;;
50367;SDS011;36281;34.132;-118.018;2023-11-19T02:57:47;3.15;;;2.50;;
50367;SDS011;36281;34.132;-118.018;2023-11-19T03:00:21;5.85;;;3.15;;
50367;SDS011;36281;34.132;-118.018;2023-11-19T03:03:17;7.00;;;3.05;;
50367;SDS011;36281;34.132;-118.018;2023-11-19T03:05:54;3.97;;;2.80;;
50367;SDS011;36281;34.132;-118.018;2023-11-19T03:08:25;5.78;;;3.50;;
50367;SDS011;36281;34.132;-118.018;2023-11-19T03:10:59;4.45;;;3.00;;
50367;SDS011;36281;34.132;-118.018;2023-11-19T03:13:42;6.50;;;3.45;;
50367;SDS011;36281;34.132;-118.018;2023-11-19T03:16:15;5.10;;;3.50;;
50367;SDS011;36281;34.132;-118.018;2023-11-19T03:18:47;5.75;;;2.95;;
50367;SDS011;36281;34.132;-118.018;2023-11-19T03:21:18;14.20;;;3.75;;
50367;SDS011;36281;34.132;-118.018;2023-11-19T03:23:55;6.90;;;3.53;;
50367;SDS011;36281;34.132;-118.018;2023-11-19T03:26:28;4.70;;;3.05;;
50367;SDS011;36281;34.132;-118.018;2023-11-19T03:28:58;4.03;;;3.00;;
50367;SDS011;36281;34.132;-118.018;2023-11-19T03:31:35;4.72;;;3.03;;
50367;SDS011;36281;34.132;-118.018;2023-11-19T03:34:11;4.35;;;3.20;;
50367;SDS011;36281;34.132;-118.018;2023-11-19T03:36:44;5.63;;;3.20;;
50367;SDS011;36281;34.132;-118.018;2023-11-19T03:39:15;4.25;;;3.17;;
50367;SDS011;36281;34.132;-118.018;2023-11-19T03:41:58;3.80;;;3.13;;
50367;SDS011;36281;34.132;-118.018;2023-11-19T03:44:29;3.45;;;3.05;;
50367;SDS011;36281;34.132;-118.018;2023-11-19T03:47:02;3.80;;;2.90;;
50367;SDS011;36281;34.132;-118.018;2023-11-19T03:49:38;4.43;;;3.20;;
50367;SDS011;36281;34.132;-118.018;2023-11-19T03:52:08;5.18;;;3.10;;
50367;SDS011;36281;34.132;-118.018;2023-11-19T03:54:46;3.60;;;3.15;;
50367;SDS011;36281;34.132;-118.018;2023-11-19T03:57:17;6.50;;;3.35;;
50367;SDS011;36281;34.132;-118.018;2023-11-19T03:59:50;10.15;;;4.25;;
50367;SDS011;36281;34.132;-118.018;2023-11-19T04:02:29;7.45;;;3.72;;
50367;SDS011;36281;34.132;-118.018;2023-11-19T04:05:07;4.28;;;3.63;;
50367;SDS011;36281;34.132;-118.018;2023-11-19T04:07:47;5.05;;;3.20;;
50367;SDS011;36281;34.132;-118.018;2023-11-19T04:13:07;6.05;;;3.95;;
50367;SDS011;36281;34.132;-118.018;2023-11-19T04:15:38;5.15;;;3.70;;
50367;SDS011;36281;34.132;-118.018;2023-11-19T04:18:16;5.50;;;3.92;;
50367;SDS011;36281;34.132;-118.018;2023-11-19T04:20:47;6.65;;;3.90;;
50367;SDS011;36281;34.132;-118.018;2023-11-19T04:23:18;6.03;;;4.28;;
50367;SDS011;36281;34.132;-118.018;2023-11-19T04:25:48;8.63;;;4.65;;
50367;SDS011;36281;34.132;-118.018;2023-11-19T04:28:18;7.88;;;4.80;;
50367;SDS011;36281;34.132;-118.018;2023-11-19T04:30:49;8.52;;;4.93;;
50367;SDS011;36281;34.132;-118.018;2023-11-19T04:33:21;7.97;;;4.63;;
50367;SDS011;36281;34.132;-118.018;2023-11-19T04:35:53;7.13;;;5.30;;
50367;SDS011;36281;34.132;-118.018;2023-11-19T04:38:25;8.30;;;5.13;;
50367;SDS011;36281;34.132;-118.018;2023-11-19T04:40:57;5.63;;;4.97;;
50367;SDS011;36281;34.132;-118.018;2023-11-19T04:43:30;7.25;;;4.93;;
50367;SDS011;36281;34.132;-118.018;2023-11-19T04:46:03;8.82;;;5.30;;
50367;SDS011;36281;34.132;-118.018;2023-11-19T04:48:37;6.70;;;4.97;;
50367;SDS011;36281;34.132;-118.018;2023-11-19T04:51:08;9.00;;;5.40;;
50367;SDS011;36281;34.132;-118.018;2023-11-19T04:53:41;7.03;;;5.20;;
50367;SDS011;36281;34.132;-118.018;2023-11-19T04:56:15;6.43;;;5.68;;
50367;SDS011;36281;34.132;-118.018;2023-11-19T04:58:48;7.13;;;5.32;;
50367;SDS011;36281;34.132;-118.018;2023-11-19T05:01:21;5.68;;;5.07;;
50367;SDS011;36281;34.132;-118.018;2023-11-19T05:03:54;6.25;;;5.05;;
50367;SDS011;36281;34.132;-118.018;2023-11-19T05:06:31;6.05;;;5.20;;
50367;SDS011;36281;34.132;-118.018;2023-11-19T05:09:03;7.90;;;5.85;;
50367;SDS011;36281;34.132;-118.018;2023-11-19T05:11:36;8.15;;;6.07;;
50367;SDS011;36281;34.132;-118.018;2023-11-19T05:14:10;8.05;;;5.90;;
50367;SDS011;36281;34.132;-118.018;2023-11-19T05:16:40;8.55;;;6.60;;
50367;SDS011;36281;34.132;-118.018;2023-11-19T05:19:16;8.00;;;5.45;;
50367;SDS011;36281;34.132;-118.018;2023-11-19T05:21:50;8.57;;;6.25;;
50367;SDS011;36281;34.132;-118.018;2023-11-19T05:24:21;7.80;;;5.78;;
50367;SDS011;36281;34.132;-118.018;2023-11-19T05:26:53;6.53;;;5.70;;
50367;SDS011;36281;34.132;-118.018;2023-11-19T05:29:25;7.72;;;5.50;;
50367;SDS011;36281;34.132;-118.018;2023-11-19T05:31:58;8.73;;;5.78;;
50367;SDS011;36281;34.132;-118.018;2023-11-19T05:34:30;8.13;;;5.80;;
50367;SDS011;36281;34.132;-118.018;2023-11-19T05:37:02;7.20;;;5.47;;
50367;SDS011;36281;34.132;-118.018;2023-11-19T05:39:39;15.98;;;8.88;;
50367;SDS011;36281;34.132;-118.018;2023-11-19T05:42:11;9.88;;;7.45;;
50367;SDS011;36281;34.132;-118.018;2023-11-19T05:44:45;8.82;;;6.15;;
50367;SDS011;36281;34.132;-118.018;2023-11-19T05:47:16;6.82;;;5.68;;
50367;SDS011;36281;34.132;-118.018;2023-11-19T05:49:51;8.50;;;5.47;;
50367;SDS011;36281;34.132;-118.018;2023-11-19T05:52:23;8.93;;;5.80;;
50367;SDS011;36281;34.132;-118.018;2023-11-19T05:54:53;10.90;;;6.47;;
50367;SDS011;36281;34.132;-118.018;2023-11-19T05:57:25;11.20;;;6.22;;
50367;SDS011;36281;34.132;-118.018;2023-11-19T05:59:58;7.30;;;5.55;;
50367;SDS011;36281;34.132;-118.018;2023-11-19T06:02:33;8.95;;;5.85;;
50367;SDS011;36281;34.132;-118.018;2023-11-19T06:05:10;10.05;;;5.43;;
50367;SDS011;36281;34.132;-118.018;2023-11-19T06:07:50;10.65;;;6.28;;
50367;SDS011;36281;34.132;-118.018;2023-11-19T06:10:20;9.73;;;6.30;;
50367;SDS011;36281;34.132;-118.018;2023-11-19T06:12:52;7.97;;;6.20;;
50367;SDS011;36281;34.132;-118.018;2023-11-19T06:15:27;8.95;;;5.90;;
50367;SDS011;36281;34.132;-118.018;2023-11-19T06:17:57;12.13;;;5.78;;
50367;SDS011;36281;34.132;-118.018;2023-11-19T06:20:43;6.85;;;5.90;;
50367;SDS011;36281;34.132;-118.018;2023-11-19T06:23:13;7.65;;;5.72;;
50367;SDS011;36281;34.132;-118.018;2023-11-19T06:25:46;7.53;;;5.53;;
50367;SDS011;36281;34.132;-118.018;2023-11-19T06:28:17;7.07;;;6.03;;
50367;SDS011;36281;34.132;-118.018;2023-11-19T06:30:47;6.30;;;5.70;;
50367;SDS011;36281;34.132;-118.018;2023-11-19T06:33:21;6.82;;;5.80;;
50367;SDS011;36281;34.132;-118.018;2023-11-19T06:35:55;8.90;;;5.82;;
50367;SDS011;36281;34.132;-118.018;2023-11-19T06:38:25;7.32;;;6.07;;
50367;SDS011;36281;34.132;-118.018;2023-11-19T06:40:57;7.78;;;5.90;;
50367;SDS011;36281;34.132;-118.018;2023-11-19T06:43:27;6.50;;;5.35;;
50367;SDS011;36281;34.132;-118.018;2023-11-19T06:48:59;8.07;;;6.38;;
50367;SDS011;36281;34.132;-118.018;2023-11-19T06:51:37;9.55;;;6.68;;
50367;SDS011;36281;34.132;-118.018;2023-11-19T06:54:11;8.20;;;6.20;;
50367;SDS011;36281;34.132;-118.018;2023-11-19T06:56:42;9.18;;;6.70;;
50367;SDS011;36281;34.132;-118.018;2023-11-19T06:59:14;7.05;;;6.35;;
50367;SDS011;36281;34.132;-118.018;2023-11-19T07:01:45;11.55;;;7.78;;
50367;SDS011;36281;34.132;-118.018;2023-11-19T07:04:16;9.45;;;6.90;;
50367;SDS011;36281;34.132;-118.018;2023-11-19T07:06:49;10.93;;;7.40;;
50367;SDS011;36281;34.132;-118.018;2023-11-19T07:09:22;14.73;;;7.80;;
50367;SDS011;36281;34.132;-118.018;2023-11-19T07:11:52;11.10;;;7.20;;
50367;SDS011;36281;34.132;-118.018;2023-11-19T07:14:38;13.27;;;7.60;;
50367;SDS011;36281;34.132;-118.018;2023-11-19T07:17:10;9.82;;;7.75;;
50367;SDS011;36281;34.132;-118.018;2023-11-19T07:19:41;11.63;;;7.80;;
50367;SDS011;36281;34.132;-118.018;2023-11-19T07:22:20;11.23;;;7.00;;
50367;SDS011;36281;34.132;-118.018;2023-11-19T07:25:02;9.35;;;7.22;;
50367;SDS011;36281;34.132;-118.018;2023-11-19T07:27:31;7.28;;;6.55;;
50367;SDS011;36281;34.132;-118.018;2023-11-19T07:30:00;9.68;;;6.80;;
50367;SDS011;36281;34.132;-118.018;2023-11-19T07:32:29;9.57;;;6.93;;
50367;SDS011;36281;34.132;-118.018;2023-11-19T07:34:58;10.48;;;7.47;;
50367;SDS011;36281;34.132;-118.018;2023-11-19T07:37:29;11.85;;;7.75;;
50367;SDS011;36281;34.132;-118.018;2023-11-19T07:39:58;10.30;;;7.70;;
50367;SDS011;36281;34.132;-118.018;2023-11-19T07:42:27;9.73;;;7.93;;
50367;SDS011;36281;34.132;-118.018;2023-11-19T07:44:56;9.63;;;7.45;;
50367;SDS011;36281;34.132;-118.018;2023-11-19T07:47:26;11.65;;;8.85;;
50367;SDS011;36281;34.132;-118.018;2023-11-19T07:49:56;10.55;;;8.20;;
50367;SDS011;36281;34.132;-118.018;2023-11-19T07:52:25;10.15;;;8.43;;
50367;SDS011;36281;34.132;-118.018;2023-11-19T07:54:56;11.15;;;8.43;;
50367;SDS011;36281;34.132;-118.018;2023-11-19T07:57:25;10.23;;;7.78;;
50367;SDS011;36281;34.132;-118.018;2023-11-19T07:59:58;11.55;;;8.50;;
50367;SDS011;36281;34.132;-118.018;2023-11-19T08:02:28;12.00;;;8.63;;
50367;SDS011;36281;34.132;-118.018;2023-11-19T08:04:57;10.90;;;8.70;;
50367;SDS011;36281;34.132;-118.018;2023-11-19T08:07:26;9.90;;;8.77;;
50367;SDS011;36281;34.132;-118.018;2023-11-19T08:09:57;11.88;;;8.45;;
50367;SDS011;36281;34.132;-118.018;2023-11-19T08:12:26;11.73;;;8.07;;
50367;SDS011;36281;34.132;-118.018;2023-11-19T08:14:55;11.55;;;8.27;;
50367;SDS011;36281;34.132;-118.018;2023-11-19T08:17:26;12.05;;;8.57;;
50367;SDS011;36281;34.132;-118.018;2023-11-19T08:19:55;9.63;;;7.82;;
50367;SDS011;36281;34.132;-118.018;2023-11-19T08:22:24;9.90;;;7.50;;
50367;SDS011;36281;34.132;-118.018;2023-11-19T08:24:53;9.25;;;7.57;;
50367;SDS011;36281;34.132;-118.018;2023-11-19T08:27:24;11.45;;;7.93;;
50367;SDS011;36281;34.132;-118.018;2023-11-19T08:29:54;9.23;;;7.30;;
50367;SDS011;36281;34.132;-118.018;2023-11-19T08:32:26;9.73;;;6.95;;
50367;SDS011;36281;34.132;-118.018;2023-11-19T08:34:56;8.30;;;7.35;;
50367;SDS011;36281;34.132;-118.018;2023-11-19T08:37:25;8.20;;;6.80;;
50367;SDS011;36281;34.132;-118.018;2023-11-19T08:39:54;10.30;;;7.00;;
50367;SDS011;36281;34.132;-118.018;2023-11-19T08:42:25;9.05;;;6.72;;
50367;SDS011;36281;34.132;-118.018;2023-11-19T08:44:55;11.27;;;7.00;;
50367;SDS011;36281;34.132;-118.018;2023-11-19T08:47:32;7.70;;;6.50;;
50367;SDS011;36281;34.132;-118.018;2023-11-19T08:50:02;9.57;;;6.90;;
50367;SDS011;36281;34.132;-118.018;2023-11-19T08:52:32;10.60;;;6.95;;
50367;SDS011;36281;34.132;-118.018;2023-11-19T08:55:02;8.65;;;6.85;;
50367;SDS011;36281;34.132;-118.018;2023-11-19T08:57:35;9.88;;;6.35;;
50367;SDS011;36281;34.132;-118.018;2023-11-19T09:00:08;8.07;;;6.30;;
50367;SDS011;36281;34.132;-118.018;2023-11-19T09:02:39;8.32;;;5.97;;
50367;SDS011;36281;34.132;-118.018;2023-11-19T09:05:11;9.38;;;6.43;;
50367;SDS011;36281;34.132;-118.018;2023-11-19T09:07:44;8.27;;;6.30;;
50367;SDS011;36281;34.132;-118.018;2023-11-19T09:10:14;8.25;;;6.82;;
50367;SDS011;36281;34.132;-118.018;2023-11-19T09:12:45;9.30;;;6.53;;
50367;SDS011;36281;34.132;-118.018;2023-11-19T09:15:15;8.82;;;6.30;;
50367;SDS011;36281;34.132;-118.018;2023-11-19T09:17:44;10.60;;;6.45;;
50367;SDS011;36281;34.132;-118.018;2023-11-19T09:20:19;10.98;;;6.60;;
50367;SDS011;36281;34.132;-118.018;2023-11-19T09:22:56;9.77;;;6.70;;
50367;SDS011;36281;34.132;-118.018;2023-11-19T09:25:26;9.60;;;6.80;;
50367;SDS011;36281;34.132;-118.018;2023-11-19T09:28:13;10.52;;;7.00;;
50367;SDS011;36281;34.132;-118.018;2023-11-19T09:30:42;7.28;;;6.13;;
50367;SDS011;36281;34.132;-118.018;2023-11-19T09:33:12;7.13;;;5.90;;
50367;SDS011;36281;34.132;-118.018;2023-11-19T09:35:43;7.82;;;6.05;;
50367;SDS011;36281;34.132;-118.018;2023-11-19T09:38:22;9.20;;;6.30;;
50367;SDS011;36281;34.132;-118.018;2023-11-19T09:40:52;8.13;;;6.10;;
50367;SDS011;36281;34.132;-118.018;2023-11-19T09:43:30;6.90;;;6.20;;
50367;SDS011;36281;34.132;-118.018;2023-11-19T09:46:06;6.80;;;6.10;;
50367;SDS011;36281;34.132;-118.018;2023-11-19T09:48:41;10.63;;;6.30;;
50367;SDS011;36281;34.132;-118.018;2023-11-19T09:51:14;10.00;;;6.25;;
50367;SDS011;36281;34.132;-118.018;2023-11-19T09:53:56;7.68;;;6.18;;
50367;SDS011;36281;34.132;-118.018;2023-11-19T09:56:27;7.35;;;6.20;;
50367;SDS011;36281;34.132;-118.018;2023-11-19T09:59:05;7.63;;;6.60;;
50367;SDS011;36281;34.132;-118.018;2023-11-19T10:01:37;7.80;;;6.82;;
50367;SDS011;36281;34.132;-118.018;2023-11-19T10:04:09;9.25;;;6.65;;
50367;SDS011;36281;34.132;-118.018;2023-11-19T10:06:45;9.63;;;6.63;;
50367;SDS011;36281;34.132;-118.018;2023-11-19T10:09:16;9.05;;;6.72;;
50367;SDS011;36281;34.132;-118.018;2023-11-19T10:11:50;7.95;;;6.50;;
50367;SDS011;36281;34.132;-118.018;2023-11-19T10:14:27;8.40;;;6.53;;
50367;SDS011;36281;34.132;-118.018;2023-11-19T10:19:32;9.73;;;6.40;;
50367;SDS011;36281;34.132;-118.018;2023-11-19T10:22:04;9.82;;;6.95;;
50367;SDS011;36281;34.132;-118.018;2023-11-19T10:24:37;10.60;;;6.20;;
50367;SDS011;36281;34.132;-118.018;2023-11-19T10:27:16;8.48;;;6.63;;
50367;SDS011;36281;34.132;-118.018;2023-11-19T10:29:51;7.47;;;6.38;;
50367;SDS011;36281;34.132;-118.018;2023-11-19T10:32:29;9.00;;;6.88;;
50367;SDS011;36281;34.132;-118.018;2023-11-19T10:35:05;8.18;;;6.60;;
50367;SDS011;36281;34.132;-118.018;2023-11-19T10:37:36;6.82;;;6.00;;
50367;SDS011;36281;34.132;-118.018;2023-11-19T10:40:10;8.48;;;6.20;;
50367;SDS011;36281;34.132;-118.018;2023-11-19T10:42:41;7.60;;;6.10;;
50367;SDS011;36281;34.132;-118.018;2023-11-19T10:45:27;12.32;;;7.68;;
50367;SDS011;36281;34.132;-118.018;2023-11-19T10:47:58;10.00;;;6.65;;
50367;SDS011;36281;34.132;-118.018;2023-11-19T10:50:28;11.82;;;6.50;;
50367;SDS011;36281;34.132;-118.018;2023-11-19T10:53:00;11.43;;;6.55;;
50367;SDS011;36281;34.132;-118.018;2023-11-19T10:55:34;10.55;;;7.28;;
50367;SDS011;36281;34.132;-118.018;2023-11-19T10:58:08;10.07;;;6.75;;
50367;SDS011;36281;34.132;-118.018;2023-11-19T11:00:41;9.27;;;7.10;;
50367;SDS011;36281;34.132;-118.018;2023-11-19T11:03:17;10.57;;;7.13;;
50367;SDS011;36281;34.132;-118.018;2023-11-19T11:05:48;8.63;;;7.38;;
50367;SDS011;36281;34.132;-118.018;2023-11-19T11:08:19;10.23;;;7.22;;
50367;SDS011;36281;34.132;-118.018;2023-11-19T11:10:52;10.60;;;7.32;;
50367;SDS011;36281;34.132;-118.018;2023-11-19T11:13:24;9.25;;;7.40;;
50367;SDS011;36281;34.132;-118.018;2023-11-19T11:16:07;9.77;;;7.13;;
50367;SDS011;36281;34.132;-118.018;2023-11-19T11:18:41;8.75;;;7.05;;
50367;SDS011;36281;34.132;-118.018;2023-11-19T11:21:16;11.63;;;7.43;;
50367;SDS011;36281;34.132;-118.018;2023-11-19T11:24:02;7.82;;;6.32;;
50367;SDS011;36281;34.132;-118.018;2023-11-19T11:30:11;8.20;;;6.95;;
50367;SDS011;36281;34.132;-118.018;2023-11-19T11:32:58;10.13;;;6.63;;
50367;SDS011;36281;34.132;-118.018;2023-11-19T11:35:41;7.78;;;6.35;;
50367;SDS011;36281;34.132;-118.018;2023-11-19T11:38:21;8.25;;;6.45;;
50367;SDS011;36281;34.132;-118.018;2023-11-19T11:43:56;8.63;;;6.40;;
50367;SDS011;36281;34.132;-118.018;2023-11-19T11:49:40;9.25;;;6.60;;
50367;SDS011;36281;34.132;-118.018;2023-11-19T11:52:11;8.05;;;6.28;;
50367;SDS011;36281;34.132;-118.018;2023-11-19T11:54:44;8.45;;;6.57;;
50367;SDS011;36281;34.132;-118.018;2023-11-19T11:57:15;8.25;;;6.30;;
50367;SDS011;36281;34.132;-118.018;2023-11-19T11:59:48;10.85;;;6.70;;
50367;SDS011;36281;34.132;-118.018;2023-11-19T12:02:22;8.35;;;6.60;;
50367;SDS011;36281;34.132;-118.018;2023-11-19T12:05:01;9.40;;;6.85;;
50367;SDS011;36281;34.132;-118.018;2023-11-19T12:07:33;9.50;;;6.78;;
50367;SDS011;36281;34.132;-118.018;2023-11-19T12:10:07;11.63;;;7.07;;
50367;SDS011;36281;34.132;-118.018;2023-11-19T12:12:40;13.10;;;7.57;;
50367;SDS011;36281;34.132;-118.018;2023-11-19T12:15:11;9.30;;;7.28;;
50367;SDS011;36281;34.132;-118.018;2023-11-19T12:17:48;11.30;;;8.00;;
50367;SDS011;36281;34.132;-118.018;2023-11-19T12:20:22;12.27;;;7.40;;
50367;SDS011;36281;34.132;-118.018;2023-11-19T12:23:02;10.85;;;6.50;;
50367;SDS011;36281;34.132;-118.018;2023-11-19T12:25:36;16.27;;;7.43;;
50367;SDS011;36281;34.132;-118.018;2023-11-19T12:28:11;9.98;;;7.18;;
50367;SDS011;36281;34.132;-118.018;2023-11-19T12:30:45;7.65;;;6.57;;
50367;SDS011;36281;34.132;-118.018;2023-11-19T12:33:21;6.70;;;6.00;;
50367;SDS011;36281;34.132;-118.018;2023-11-19T12:35:57;7.63;;;5.88;;
50367;SDS011;36281;34.132;-118.018;2023-11-19T12:38:33;8.27;;;6.22;;
50367;SDS011;36281;34.132;-118.018;2023-11-19T12:41:05;9.68;;;6.97;;
50367;SDS011;36281;34.132;-118.018;2023-11-19T12:43:36;9.80;;;6.53;;
50367;SDS011;36281;34.132;-118.018;2023-11-19T12:46:20;7.70;;;6.03;;
50367;SDS011;36281;34.132;-118.018;2023-11-19T12:48:52;9.25;;;6.45;;
50367;SDS011;36281;34.132;-118.018;2023-11-19T12:51:33;7.70;;;6.05;;
50367;SDS011;36281;34.132;-118.018;2023-11-19T12:54:06;8.20;;;6.05;;
50367;SDS011;36281;34.132;-118.018;2023-11-19T12:56:36;11.70;;;6.20;;
50367;SDS011;36281;34.132;-118.018;2023-11-19T12:59:12;12.35;;;6.47;;
50367;SDS011;36281;34.132;-118.018;2023-11-19T13:01:41;14.63;;;6.20;;
50367;SDS011;36281;34.132;-118.018;2023-11-19T13:04:23;7.03;;;5.80;;
50367;SDS011;36281;34.132;-118.018;2023-11-19T13:07:01;7.35;;;5.93;;
50367;SDS011;36281;34.132;-118.018;2023-11-19T13:09:33;8.63;;;6.32;;
50367;SDS011;36281;34.132;-118.018;2023-11-19T13:12:12;8.27;;;6.68;;
50367;SDS011;36281;34.132;-118.018;2023-11-19T13:14:45;7.43;;;5.70;;
50367;SDS011;36281;34.132;-118.018;2023-11-19T13:17:21;7.95;;;5.90;;
50367;SDS011;36281;34.132;-118.018;2023-11-19T13:19:51;11.02;;;6.78;;
50367;SDS011;36281;34.132;-118.018;2023-11-19T13:22:29;9.80;;;6.50;;
50367;SDS011;36281;34.132;-118.018;2023-11-19T13:24:59;8.02;;;6.20;;
50367;SDS011;36281;34.132;-118.018;2023-11-19T13:27:29;10.65;;;6.38;;
50367;SDS011;36281;34.132;-118.018;2023-11-19T13:29:59;8.00;;;5.63;;
50367;SDS011;36281;34.132;-118.018;2023-11-19T13:35:28;10.77;;;6.22;;
50367;SDS011;36281;34.132;-118.018;2023-11-19T13:40:54;6.57;;;5.82;;
50367;SDS011;36281;34.132;-118.018;2023-11-19T13:43:28;8.05;;;6.07;;
50367;SDS011;36281;34.132;-118.018;2023-11-19T13:45:58;7.10;;;5.80;;
50367;SDS011;36281;34.132;-118.018;2023-11-19T13:48:29;9.40;;;5.80;;
50367;SDS011;36281;34.132;-118.018;2023-11-19T13:50:59;8.77;;;6.70;;
50367;SDS011;36281;34.132;-118.018;2023-11-19T13:53:32;7.13;;;5.60;;
50367;SDS011;36281;34.132;-118.018;2023-11-19T13:56:06;7.43;;;5.95;;
50367;SDS011;36281;34.132;-118.018;2023-11-19T13:58:37;7.57;;;5.50;;
50367;SDS011;36281;34.132;-118.018;2023-11-19T14:01:09;9.45;;;5.55;;
50367;SDS011;36281;34.132;-118.018;2023-11-19T14:03:41;8.93;;;6.18;;
50367;SDS011;36281;34.132;-118.018;2023-11-19T14:06:10;8.55;;;6.15;;
50367;SDS011;36281;34.132;-118.018;2023-11-19T14:08:42;7.60;;;5.63;;
50367;SDS011;36281;34.132;-118.018;2023-11-19T14:11:12;8.25;;;5.60;;
50367;SDS011;36281;34.132;-118.018;2023-11-19T14:13:42;8.23;;;5.40;;
50367;SDS011;36281;34.132;-118.018;2023-11-19T14:16:15;6.43;;;5.30;;
50367;SDS011;36281;34.132;-118.018;2023-11-19T14:18:44;7.82;;;5.80;;
50367;SDS011;36281;34.132;-118.018;2023-11-19T14:21:14;10.38;;;6.47;;
50367;SDS011;36281;34.132;-118.018;2023-11-19T14:23:45;7.90;;;5.40;;
50367;SDS011;36281;34.132;-118.018;2023-11-19T14:26:14;8.07;;;5.18;;
50367;SDS011;36281;34.132;-118.018;2023-11-19T14:28:43;7.22;;;4.32;;
50367;SDS011;36281;34.132;-118.018;2023-11-19T14:31:14;6.85;;;5.05;;
50367;SDS011;36281;34.132;-118.018;2023-11-19T14:33:43;9.77;;;5.10;;
50367;SDS011;36281;34.132;-118.018;2023-11-19T14:36:13;6.53;;;4.78;;
50367;SDS011;36281;34.132;-118.018;2023-11-19T14:38:45;7.68;;;4.57;;
50367;SDS011;36281;34.132;-118.018;2023-11-19T14:41:14;8.82;;;5.07;;
50367;SDS011;36281;34.132;-118.018;2023-11-19T14:43:43;6.82;;;4.60;;
50367;SDS011;36281;34.132;-118.018;2023-11-19T14:46:12;7.88;;;4.72;;
50367;SDS011;36281;34.132;-118.018;2023-11-19T14:48:41;6.97;;;4.40;;
50367;SDS011;36281;34.132;-118.018;2023-11-19T14:51:10;6.68;;;5.38;;
50367;SDS011;36281;34.132;-118.018;2023-11-19T14:53:40;9.32;;;5.72;;
50367;SDS011;36281;34.132;-118.018;2023-11-19T14:56:20;7.25;;;4.72;;
50367;SDS011;36281;34.132;-118.018;2023-11-19T14:58:53;6.25;;;3.90;;
50367;SDS011;36281;34.132;-118.018;2023-11-19T15:01:25;6.68;;;3.97;;
50367;SDS011;36281;34.132;-118.018;2023-11-19T15:03:59;7.72;;;4.57;;
50367;SDS011;36281;34.132;-118.018;2023-11-19T15:06:32;5.95;;;4.68;;